createdAt,value
2023-09-25T00:00:37.276Z,74.84
2023-09-25T00:03:05.594Z,74.71
2023-09-25T00:05:33.053Z,74.51
2023-09-25T00:08:00.281Z,74.45
2023-09-25T00:10:27.475Z,75.12
2023-09-25T00:12:54.559Z,75.70
2023-09-25T00:15:21.665Z,75.85
2023-09-25T00:17:50.183Z,75.90
2023-09-25T00:20:21.287Z,75.92
2023-09-25T00:22:48.341Z,76.02
2023-09-25T00:25:15.344Z,76.53
2023-09-25T00:27:42.431Z,76.91
2023-09-25T00:30:10.743Z,76.17
2023-09-25T00:32:38.532Z,75.67
2023-09-25T00:35:11.287Z,76.74
2023-09-25T00:37:39.951Z,76.92
2023-09-25T00:40:22.772Z,76.53
2023-09-25T00:42:51.617Z,75.99
2023-09-25T00:45:18.797Z,75.53
2023-09-25T00:47:45.918Z,75.16
2023-09-25T00:50:13.986Z,75.71
2023-09-25T00:52:45.649Z,75.48
2023-09-25T00:55:17.647Z,76.04
2023-09-25T00:57:50.080Z,76.60
2023-09-25T01:00:19.409Z,76.51
2023-09-25T01:02:48.852Z,76.28
2023-09-25T01:05:16.489Z,76.61
2023-09-25T01:07:43.670Z,77.04
2023-09-25T01:10:16.778Z,77.00
2023-09-25T01:12:45.885Z,76.69
2023-09-25T01:15:15.498Z,77.05
2023-09-25T01:17:44.287Z,76.84
2023-09-25T01:20:18.715Z,77.76
2023-09-25T01:22:48.446Z,77.59
2023-09-25T01:25:17.452Z,77.71
2023-09-25T01:27:48.790Z,78.02
2023-09-25T01:30:17.374Z,77.79
2023-09-25T01:32:46.732Z,77.80
2023-09-25T01:35:17.452Z,77.86
2023-09-25T01:37:46.247Z,77.83
2023-09-25T01:40:14.998Z,77.68
2023-09-25T01:42:42.221Z,77.74
2023-09-25T01:45:10.199Z,78.47
2023-09-25T01:47:38.548Z,78.35
2023-09-25T01:50:06.308Z,78.51
2023-09-25T01:52:33.365Z,77.99
2023-09-25T01:55:00.405Z,77.63
2023-09-25T01:57:28.740Z,77.27
2023-09-25T01:59:55.898Z,77.46
2023-09-25T02:02:22.900Z,77.32
2023-09-25T02:04:50.334Z,77.18
2023-09-25T02:07:19.878Z,77.33
2023-09-25T02:09:47.369Z,77.18
2023-09-25T02:12:14.411Z,76.42
2023-09-25T02:14:41.588Z,76.92
2023-09-25T02:17:08.754Z,77.41
2023-09-25T02:19:36.215Z,77.54
2023-09-25T02:22:07.781Z,77.51
2023-09-25T02:24:35.902Z,77.84
2023-09-25T02:27:02.981Z,78.07
2023-09-25T02:29:31.164Z,77.93
2023-09-25T02:31:58.350Z,78.08
2023-09-25T02:34:25.898Z,78.76
2023-09-25T02:36:52.903Z,78.86
2023-09-25T02:39:19.966Z,79.03
2023-09-25T02:41:47.074Z,79.82
2023-09-25T02:44:14.164Z,80.06
2023-09-25T02:46:41.226Z,80.06
2023-09-25T02:49:08.359Z,80.59
2023-09-25T02:51:35.499Z,80.59
2023-09-25T02:54:02.774Z,80.95
2023-09-25T02:56:30.630Z,80.10
2023-09-25T02:58:58.993Z,80.31
2023-09-25T03:01:26.080Z,80.93
2023-09-25T03:03:53.293Z,81.52
2023-09-25T03:06:20.583Z,81.73
2023-09-25T03:08:48.015Z,81.01
2023-09-25T03:11:15.308Z,80.59
2023-09-25T03:13:42.553Z,80.51
2023-09-25T03:16:14.770Z,80.29
2023-09-25T03:18:42.851Z,80.30
2023-09-25T03:21:15.006Z,78.39
2023-09-25T03:23:42.621Z,78.77
2023-09-25T03:26:17.253Z,78.83
2023-09-25T03:28:45.706Z,78.71
2023-09-25T03:31:14.040Z,78.43
2023-09-25T03:33:41.998Z,78.53
2023-09-25T03:36:10.094Z,78.58
2023-09-25T03:38:38.474Z,79.08
2023-09-25T03:41:06.912Z,79.25
2023-09-25T03:43:34.143Z,79.19
2023-09-25T03:46:03.697Z,79.16
2023-09-25T03:48:32.156Z,79.57
2023-09-25T03:50:59.322Z,79.78
2023-09-25T03:53:26.430Z,79.58
2023-09-25T03:55:53.761Z,79.86
2023-09-25T03:58:21.863Z,79.46
2023-09-25T04:00:49.149Z,79.59
2023-09-25T04:03:16.427Z,79.70
2023-09-25T04:05:43.635Z,80.00
2023-09-25T04:08:10.788Z,80.21
2023-09-25T04:10:39.130Z,79.93
2023-09-25T04:13:06.208Z,79.83
2023-09-25T04:15:33.920Z,80.60
2023-09-25T04:18:01.875Z,80.51
2023-09-25T04:20:29.514Z,80.08
2023-09-25T04:22:59.965Z,80.34
2023-09-25T04:25:28.864Z,80.32
2023-09-25T04:27:57.018Z,80.13
2023-09-25T04:30:25.223Z,81.15
2023-09-25T04:32:56.384Z,80.52
2023-09-25T04:35:25.224Z,81.02
2023-09-25T04:37:52.876Z,81.28
2023-09-25T04:40:26.397Z,81.24
2023-09-25T04:42:54.129Z,81.56
2023-09-25T04:45:21.668Z,81.04
2023-09-25T04:47:50.002Z,80.67
2023-09-25T04:50:17.260Z,80.83
2023-09-25T04:52:47.120Z,81.41
2023-09-25T04:55:15.087Z,80.91
2023-09-25T04:57:46.791Z,81.20
2023-09-25T05:00:23.413Z,81.42
2023-09-25T05:02:51.502Z,81.38
2023-09-25T05:05:18.996Z,81.85
2023-09-25T05:07:50.609Z,81.05
2023-09-25T05:10:20.380Z,82.16
2023-09-25T05:12:47.544Z,83.17
2023-09-25T05:15:16.095Z,82.91
2023-09-25T05:17:44.882Z,83.56
2023-09-25T05:20:17.698Z,83.99
2023-09-25T05:22:47.674Z,84.16
2023-09-25T05:25:15.514Z,84.22
2023-09-25T05:27:48.320Z,84.62
2023-09-25T05:30:18.629Z,84.25
2023-09-25T05:32:51.459Z,84.20
2023-09-25T05:35:20.492Z,83.91
2023-09-25T05:37:49.750Z,83.81
2023-09-25T05:40:18.448Z,85.73
2023-09-25T05:42:49.802Z,86.72
2023-09-25T05:45:19.249Z,86.38
2023-09-25T05:47:46.610Z,86.57
2023-09-25T05:50:14.717Z,86.43
2023-09-25T05:52:42.109Z,85.97
2023-09-25T05:55:10.132Z,85.62
2023-09-25T05:57:37.779Z,85.61
2023-09-25T06:00:13.776Z,86.73
2023-09-25T06:02:43.376Z,85.88
2023-09-25T06:05:15.142Z,86.26
2023-09-25T06:07:46.239Z,86.58
2023-09-25T06:10:13.670Z,86.03
2023-09-25T06:12:41.309Z,85.04
2023-09-25T06:15:13.012Z,86.61
2023-09-25T06:17:41.881Z,87.68
2023-09-25T06:20:18.278Z,86.87
2023-09-25T06:22:47.631Z,84.78
2023-09-25T06:25:18.702Z,83.20
2023-09-25T06:27:49.427Z,82.39
2023-09-25T06:30:17.924Z,83.57
2023-09-25T06:32:45.456Z,83.17
2023-09-25T06:35:13.723Z,83.88
2023-09-25T06:37:41.029Z,83.43
2023-09-25T06:40:11.999Z,81.31
2023-09-25T06:42:40.951Z,80.75
2023-09-25T06:45:10.019Z,80.48
2023-09-25T06:47:39.481Z,82.63
2023-09-25T06:50:07.152Z,82.75
2023-09-25T06:52:34.861Z,79.97
2023-09-25T06:55:02.155Z,80.03
2023-09-25T06:57:32.695Z,80.51
2023-09-25T07:00:01.514Z,79.69
2023-09-25T07:02:33.855Z,78.24
2023-09-25T07:05:01.238Z,78.65
2023-09-25T07:07:30.945Z,76.85
2023-09-25T07:09:58.380Z,77.92
2023-09-25T07:12:27.536Z,78.60
2023-09-25T07:14:58.226Z,79.75
2023-09-25T07:17:26.063Z,78.62
2023-09-25T07:19:54.349Z,78.31
2023-09-25T07:22:22.080Z,78.43
2023-09-25T07:24:49.960Z,79.04
2023-09-25T07:27:17.729Z,79.60
2023-09-25T07:29:48.522Z,79.05
2023-09-25T07:32:17.113Z,79.15
2023-09-25T07:34:45.055Z,78.48
2023-09-25T07:37:14.032Z,77.80
2023-09-25T07:39:41.648Z,74.64
2023-09-25T07:42:09.263Z,77.06
2023-09-25T07:44:38.017Z,75.49
2023-09-25T07:47:12.080Z,76.25
2023-09-25T07:49:46.224Z,76.49
2023-09-25T07:52:19.498Z,73.97
2023-09-25T07:54:50.758Z,73.63
2023-09-25T07:57:20.805Z,74.89
2023-09-25T07:59:49.117Z,74.14
2023-09-25T08:02:22.115Z,70.90
2023-09-25T08:04:50.581Z,71.40
2023-09-25T08:07:20.050Z,71.87
2023-09-25T08:09:48.531Z,72.06
2023-09-25T08:12:16.165Z,70.40
2023-09-25T08:14:43.452Z,70.25
2023-09-25T08:17:10.595Z,67.28
2023-09-25T08:19:37.850Z,68.27
2023-09-25T08:22:04.978Z,71.59
2023-09-25T08:24:32.337Z,70.19
2023-09-25T08:27:01.100Z,70.07
2023-09-25T08:29:28.734Z,69.45
2023-09-25T08:31:56.363Z,70.17
2023-09-25T08:34:23.872Z,70.28
2023-09-25T08:36:51.144Z,71.35
2023-09-25T08:39:18.876Z,71.25
2023-09-25T08:41:47.655Z,71.06
2023-09-25T08:44:18.045Z,69.03
2023-09-25T08:46:45.911Z,68.19
2023-09-25T08:49:13.431Z,67.81
2023-09-25T08:51:41.158Z,68.83
2023-09-25T08:54:09.582Z,69.18
2023-09-25T08:56:38.134Z,70.70
2023-09-25T08:59:05.569Z,71.44
2023-09-25T09:01:33.224Z,69.58
2023-09-25T09:04:01.041Z,67.73
2023-09-25T09:06:28.522Z,67.81
2023-09-25T09:08:58.508Z,67.04
2023-09-25T09:11:26.168Z,65.05
2023-09-25T09:13:53.358Z,63.27
2023-09-25T09:16:20.964Z,66.16
2023-09-25T09:18:49.201Z,66.76
2023-09-25T09:21:28.672Z,65.74
2023-09-25T09:23:58.798Z,65.31
2023-09-25T09:26:27.009Z,63.39
2023-09-25T09:28:57.201Z,62.55
2023-09-25T09:31:24.307Z,62.77
2023-09-25T09:33:56.430Z,61.81
2023-09-25T09:36:24.782Z,61.66
2023-09-25T09:38:53.452Z,57.97
2023-09-25T09:41:20.702Z,56.65
2023-09-25T09:43:48.600Z,60.55
2023-09-25T09:46:17.346Z,57.87
2023-09-25T09:48:47.947Z,57.03
2023-09-25T09:51:19.467Z,57.28
2023-09-25T09:53:47.124Z,55.36
2023-09-25T09:56:16.941Z,54.63
2023-09-25T09:58:44.433Z,56.63
2023-09-25T10:01:12.186Z,56.13
2023-09-25T10:03:40.306Z,54.93
2023-09-25T10:06:08.333Z,53.40
2023-09-25T10:08:35.706Z,53.77
2023-09-25T10:11:21.924Z,54.55
2023-09-25T10:13:49.056Z,54.85
2023-09-25T10:16:17.132Z,53.65
2023-09-25T10:18:44.666Z,52.53
2023-09-25T10:21:15.396Z,52.85
2023-09-25T10:23:55.563Z,51.97
2023-09-25T10:26:25.727Z,53.04
2023-09-25T10:29:13.685Z,52.61
2023-09-25T10:31:47.049Z,51.45
2023-09-25T10:34:14.537Z,50.96
2023-09-25T10:36:43.935Z,51.10
2023-09-25T10:39:14.689Z,52.86
2023-09-25T10:41:44.165Z,51.60
2023-09-25T10:44:11.397Z,49.84
2023-09-25T10:46:38.602Z,49.37
2023-09-25T10:49:12.115Z,49.74
2023-09-25T10:51:39.700Z,49.63
2023-09-25T10:54:07.010Z,48.07
2023-09-25T10:56:34.495Z,47.71
2023-09-25T10:59:02.829Z,49.04
2023-09-25T11:01:32.397Z,48.97
2023-09-25T11:04:01.706Z,48.11
2023-09-25T11:06:30.347Z,47.72
2023-09-25T11:09:12.974Z,47.06
2023-09-25T11:11:42.158Z,47.38
2023-09-25T11:14:09.611Z,47.19
2023-09-25T11:16:37.424Z,46.94
2023-09-25T11:19:12.107Z,45.15
2023-09-25T11:21:41.329Z,45.94
2023-09-25T11:24:10.969Z,46.69
2023-09-25T11:26:39.234Z,45.70
2023-09-25T11:29:07.857Z,44.27
2023-09-25T11:31:50.163Z,44.24
2023-09-25T11:34:24.206Z,43.84
2023-09-25T11:36:51.400Z,44.62
2023-09-25T11:39:18.649Z,45.13
2023-09-25T11:41:46.982Z,44.96
2023-09-25T11:44:15.344Z,46.09
2023-09-25T11:46:43.894Z,46.11
2023-09-25T11:49:13.441Z,47.58
2023-09-25T11:51:41.312Z,48.20
2023-09-25T11:54:08.950Z,45.79
2023-09-25T11:56:36.276Z,48.36
2023-09-25T11:59:03.366Z,46.81
2023-09-25T12:01:30.585Z,46.42
2023-09-25T12:03:58.532Z,45.04
2023-09-25T12:06:28.009Z,45.76
2023-09-25T12:08:56.371Z,45.86
2023-09-25T12:11:23.636Z,45.78
2023-09-25T12:13:51.511Z,45.40
2023-09-25T12:16:19.901Z,44.12
2023-09-25T12:18:48.181Z,42.44
2023-09-25T12:21:15.606Z,43.54
2023-09-25T12:23:46.789Z,44.34
2023-09-25T12:26:16.269Z,44.56
2023-09-25T12:28:44.040Z,41.02
2023-09-25T12:31:11.373Z,41.89
2023-09-25T12:33:38.675Z,41.40
2023-09-25T12:36:06.269Z,40.38
2023-09-25T12:38:33.375Z,42.16
2023-09-25T12:41:00.553Z,43.19
2023-09-25T12:43:27.752Z,42.38
2023-09-25T12:45:55.409Z,40.09
2023-09-25T12:48:25.446Z,39.87
2023-09-25T12:50:53.078Z,40.18
2023-09-25T12:53:20.524Z,40.45
2023-09-25T12:55:47.624Z,39.61
2023-09-25T12:58:15.043Z,39.57
2023-09-25T13:00:42.278Z,39.27
2023-09-25T13:03:10.049Z,40.26
2023-09-25T13:05:37.562Z,40.58
2023-09-25T13:08:05.126Z,39.95
2023-09-25T13:10:32.607Z,40.24
2023-09-25T13:12:59.846Z,40.34
2023-09-25T13:15:27.385Z,39.66
2023-09-25T13:17:54.776Z,41.40
2023-09-25T13:20:22.432Z,42.31
2023-09-25T13:22:50.138Z,44.35
2023-09-25T13:25:17.311Z,41.77
2023-09-25T13:27:51.114Z,41.93
2023-09-25T13:30:20.479Z,41.22
2023-09-25T13:32:48.310Z,40.73
2023-09-25T13:35:15.915Z,39.38
2023-09-25T13:37:44.058Z,38.51
2023-09-25T13:40:12.522Z,39.92
2023-09-25T13:42:39.969Z,47.40
2023-09-25T13:45:08.283Z,49.60
2023-09-25T13:47:35.975Z,45.02
2023-09-25T13:50:03.374Z,42.98
2023-09-25T13:52:30.928Z,44.69
2023-09-25T13:54:58.596Z,48.33
2023-09-25T13:57:26.014Z,45.49
2023-09-25T13:59:53.347Z,44.58
2023-09-25T14:02:20.557Z,42.04
2023-09-25T14:04:48.684Z,43.18
2023-09-25T14:07:15.995Z,45.12
2023-09-25T14:09:43.257Z,46.84
2023-09-25T14:12:10.581Z,50.28
2023-09-25T14:14:46.982Z,50.66
2023-09-25T14:17:14.488Z,49.86
2023-09-25T14:19:41.689Z,49.03
2023-09-25T14:22:08.896Z,49.08
2023-09-25T14:24:36.217Z,48.01
2023-09-25T14:27:03.901Z,46.95
2023-09-25T14:29:32.449Z,47.37
2023-09-25T14:32:00.897Z,48.33
2023-09-25T14:34:28.003Z,48.52
2023-09-25T14:36:55.276Z,47.75
2023-09-25T14:39:29.723Z,47.25
2023-09-25T14:41:57.577Z,46.99
2023-09-25T14:44:24.580Z,47.00
2023-09-25T14:46:52.699Z,47.70
2023-09-25T14:49:20.069Z,48.12
2023-09-25T14:51:47.534Z,48.15
2023-09-25T14:54:15.385Z,48.55
2023-09-25T14:56:42.501Z,48.32
2023-09-25T14:59:09.653Z,48.18
2023-09-25T15:01:36.987Z,48.45
2023-09-25T15:04:05.377Z,48.35
2023-09-25T15:06:32.627Z,49.48
2023-09-25T15:08:59.801Z,50.25
2023-09-25T15:11:27.089Z,49.59
2023-09-25T15:13:54.149Z,49.26
2023-09-25T15:16:21.394Z,51.23
2023-09-25T15:18:48.805Z,51.27
2023-09-25T15:21:15.947Z,51.26
2023-09-25T15:23:43.178Z,52.08
2023-09-25T15:26:10.802Z,50.69
2023-09-25T15:28:38.071Z,49.82
2023-09-25T15:31:05.350Z,49.64
2023-09-25T15:33:32.603Z,50.39
2023-09-25T15:35:59.731Z,50.30
2023-09-25T15:38:26.927Z,50.80
2023-09-25T15:40:53.990Z,51.29
2023-09-25T15:43:21.273Z,52.57
2023-09-25T15:45:48.497Z,53.14
2023-09-25T15:48:15.638Z,51.74
2023-09-25T15:50:42.837Z,51.47
2023-09-25T15:53:10.262Z,51.93
2023-09-25T15:55:37.666Z,52.31
2023-09-25T15:58:10.756Z,51.04
2023-09-25T16:00:38.936Z,51.46
2023-09-25T16:03:06.407Z,52.16
2023-09-25T16:05:33.860Z,52.43
2023-09-25T16:08:01.005Z,53.17
2023-09-25T16:10:28.359Z,53.40
2023-09-25T16:12:55.598Z,53.35
2023-09-25T16:15:23.000Z,51.70
2023-09-25T16:17:50.272Z,52.49
2023-09-25T16:20:17.682Z,52.90
2023-09-25T16:22:44.964Z,54.25
2023-09-25T16:25:12.234Z,55.23
2023-09-25T16:27:39.690Z,55.95
2023-09-25T16:30:07.436Z,53.63
2023-09-25T16:32:34.755Z,53.81
2023-09-25T16:35:02.018Z,54.74
2023-09-25T16:37:30.290Z,55.88
2023-09-25T16:39:57.566Z,55.94
2023-09-25T16:42:25.034Z,57.87
2023-09-25T16:44:52.064Z,59.23
2023-09-25T16:47:20.744Z,60.21
2023-09-25T16:49:50.085Z,60.58
2023-09-25T16:52:17.393Z,61.33
2023-09-25T16:54:44.617Z,60.82
2023-09-25T16:57:11.706Z,61.51
2023-09-25T16:59:38.878Z,62.79
2023-09-25T17:02:07.145Z,62.87
2023-09-25T17:04:34.566Z,64.03
2023-09-25T17:07:01.916Z,63.74
2023-09-25T17:09:29.164Z,64.27
2023-09-25T17:11:56.248Z,64.98
2023-09-25T17:14:23.643Z,64.35
2023-09-25T17:16:50.804Z,64.79
2023-09-25T17:19:17.991Z,64.38
2023-09-25T17:21:45.102Z,63.91
2023-09-25T17:24:12.163Z,63.76
2023-09-25T17:26:39.349Z,64.10
2023-09-25T17:29:06.421Z,63.39
2023-09-25T17:31:33.792Z,62.95
2023-09-25T17:34:01.068Z,63.08
2023-09-25T17:36:28.297Z,63.07
2023-09-25T17:38:55.328Z,63.18
2023-09-25T17:41:22.834Z,62.64
2023-09-25T17:43:50.052Z,62.33
2023-09-25T17:46:17.578Z,62.58
2023-09-25T17:48:45.027Z,63.28
2023-09-25T17:51:12.572Z,63.33
2023-09-25T17:53:39.953Z,63.57
2023-09-25T17:56:09.746Z,64.01
2023-09-25T17:58:38.213Z,64.16
2023-09-25T18:01:05.721Z,64.58
2023-09-25T18:03:33.068Z,64.66
2023-09-25T18:06:00.348Z,64.17
2023-09-25T18:08:27.594Z,63.59
2023-09-25T18:10:54.956Z,64.57
2023-09-25T18:13:22.521Z,62.96
2023-09-25T18:15:50.883Z,61.97
2023-09-25T18:18:18.458Z,63.00
2023-09-25T18:20:46.145Z,62.26
2023-09-25T18:23:14.636Z,63.01
2023-09-25T18:25:43.356Z,63.78
2023-09-25T18:28:10.887Z,64.45
2023-09-25T18:30:38.476Z,64.56
2023-09-25T18:33:10.360Z,63.62
2023-09-25T18:35:40.233Z,63.79
2023-09-25T18:38:07.808Z,62.84
2023-09-25T18:40:36.604Z,62.05
2023-09-25T18:43:07.652Z,62.87
2023-09-25T18:45:35.195Z,63.60
2023-09-25T18:48:02.851Z,62.32
2023-09-25T18:50:30.190Z,62.17
2023-09-25T18:52:57.419Z,61.96
2023-09-25T18:55:25.007Z,62.40
2023-09-25T18:57:52.279Z,62.98
2023-09-25T19:00:19.517Z,62.54
2023-09-25T19:02:46.931Z,62.03
2023-09-25T19:05:14.285Z,62.92
2023-09-25T19:07:42.429Z,61.10
2023-09-25T19:10:13.132Z,61.61
2023-09-25T19:12:40.676Z,61.89
2023-09-25T19:15:08.257Z,61.29
2023-09-25T19:17:35.397Z,61.37
2023-09-25T19:20:02.951Z,62.98
2023-09-25T19:22:32.554Z,63.67
2023-09-25T19:24:59.964Z,64.02
2023-09-25T19:27:27.373Z,63.19
2023-09-25T19:29:54.829Z,63.35
2023-09-25T19:32:25.037Z,63.72
2023-09-25T19:34:52.461Z,65.13
2023-09-25T19:37:22.297Z,65.26
2023-09-25T19:39:50.132Z,65.25
2023-09-25T19:42:18.488Z,65.32
2023-09-25T19:44:45.828Z,66.30
2023-09-25T19:47:13.050Z,64.67
2023-09-25T19:49:40.314Z,65.66
2023-09-25T19:52:07.494Z,66.01
2023-09-25T19:54:35.149Z,66.61
2023-09-25T19:57:06.367Z,66.80
2023-09-25T19:59:33.655Z,67.12
2023-09-25T20:02:01.250Z,67.79
2023-09-25T20:04:28.645Z,67.27
2023-09-25T20:06:56.908Z,67.51
2023-09-25T20:09:24.356Z,67.60
2023-09-25T20:11:51.681Z,67.85
2023-09-25T20:14:20.847Z,67.74
2023-09-25T20:16:48.624Z,67.91
2023-09-25T20:19:16.548Z,68.74
2023-09-25T20:21:44.012Z,69.07
2023-09-25T20:24:11.385Z,69.87
2023-09-25T20:26:39.614Z,68.33
2023-09-25T20:29:07.165Z,67.90
2023-09-25T20:31:34.544Z,66.99
2023-09-25T20:34:02.271Z,67.47
2023-09-25T20:36:29.708Z,68.63
2023-09-25T20:38:57.162Z,68.76
2023-09-25T20:41:24.568Z,68.59
2023-09-25T20:43:52.070Z,68.01
2023-09-25T20:46:19.739Z,67.62
2023-09-25T20:48:50.412Z,68.06
2023-09-25T20:51:17.922Z,68.53
2023-09-25T20:53:45.410Z,68.88
2023-09-25T20:56:12.801Z,68.94
2023-09-25T20:58:39.973Z,69.15
2023-09-25T21:01:08.629Z,69.81
2023-09-25T21:03:35.970Z,69.62
2023-09-25T21:06:03.403Z,69.62
2023-09-25T21:08:30.908Z,69.28
2023-09-25T21:10:59.595Z,69.20
2023-09-25T21:13:26.877Z,69.14
2023-09-25T21:15:54.105Z,69.22
2023-09-25T21:18:21.410Z,69.63
2023-09-25T21:20:49.149Z,69.61
2023-09-25T21:23:16.537Z,69.33
2023-09-25T21:25:43.898Z,70.10
2023-09-25T21:28:11.155Z,70.69
2023-09-25T21:30:41.850Z,70.60
2023-09-25T21:33:09.280Z,71.62
2023-09-25T21:35:36.365Z,71.20
2023-09-25T21:38:03.922Z,70.54
2023-09-25T21:40:31.234Z,70.38
2023-09-25T21:42:58.382Z,71.17
2023-09-25T21:45:25.738Z,71.26
2023-09-25T21:47:52.931Z,71.50
2023-09-25T21:50:20.902Z,71.49
2023-09-25T21:52:48.229Z,70.95
2023-09-25T21:55:15.555Z,71.61
2023-09-25T21:57:42.844Z,71.61
2023-09-25T22:00:11.390Z,71.69
2023-09-25T22:02:41.475Z,71.38
2023-09-25T22:05:10.819Z,71.45
2023-09-25T22:07:38.654Z,71.17
2023-09-25T22:10:06.623Z,71.70
2023-09-25T22:12:33.874Z,72.09
2023-09-25T22:15:01.509Z,71.69
2023-09-25T22:17:31.439Z,72.26
2023-09-25T22:19:58.561Z,71.77
2023-09-25T22:22:26.505Z,72.03
2023-09-25T22:24:53.700Z,72.21
2023-09-25T22:27:21.112Z,71.71
2023-09-25T22:29:48.373Z,71.52
2023-09-25T22:32:15.466Z,71.18
2023-09-25T22:34:45.679Z,71.37
2023-09-25T22:37:12.890Z,71.55
2023-09-25T22:39:40.146Z,71.81
2023-09-25T22:42:07.395Z,72.72
2023-09-25T22:44:34.615Z,72.40
2023-09-25T22:47:01.802Z,72.91
2023-09-25T22:49:29.072Z,72.49
2023-09-25T22:51:56.395Z,72.41
2023-09-25T22:54:23.739Z,72.62
2023-09-25T22:56:50.959Z,72.59
2023-09-25T22:59:18.224Z,72.38
2023-09-25T23:01:48.548Z,73.26
2023-09-25T23:04:15.852Z,73.12
2023-09-25T23:06:45.325Z,74.28
2023-09-25T23:09:15.576Z,74.54
2023-09-25T23:11:42.768Z,74.27
2023-09-25T23:14:10.852Z,74.61
2023-09-25T23:16:38.041Z,74.45
2023-09-25T23:19:05.181Z,74.40
2023-09-25T23:21:32.256Z,74.91
2023-09-25T23:23:59.642Z,74.82
2023-09-25T23:26:26.725Z,74.59
2023-09-25T23:28:53.817Z,74.53
2023-09-25T23:31:20.990Z,74.69
2023-09-25T23:33:48.594Z,74.03
2023-09-25T23:36:16.985Z,73.40
2023-09-25T23:38:45.334Z,74.11
2023-09-25T23:41:12.398Z,73.88
2023-09-25T23:43:39.593Z,73.99
2023-09-25T23:46:07.892Z,75.12
2023-09-25T23:48:35.426Z,74.94
2023-09-25T23:51:02.568Z,74.26
2023-09-25T23:53:29.643Z,74.71
2023-09-25T23:56:06.483Z,74.82
2023-09-25T23:58:33.561Z,74.80
